Time;durP1;ratioP1;P1;durP2;ratioP2;P2;SDS_P1;SDS_P2;PMS_P1;PMS_P2;Temp;Humidity;BMP_temperature;BMP_pressure;BME280_temperature;BME280_humidity;BME280_pressure;Samples;Min_cycle;Max_cycle;Signal;HPM_P1;HPM_P2
2022/12/28 00:00:54;;;;;;;9.05;5.13;;;;;;;0.56;74.43;99401.84;4906293;29;20517;-80
2022/12/28 00:03:20;;;;;;;6.97;3.63;;;;;;;0.59;73.68;99401.91;4936421;29;20087;-79
2022/12/28 00:05:46;;;;;;;7.60;4.40;;;;;;;0.49;73.21;99399.97;4941986;29;20072;-79
2022/12/28 00:08:12;;;;;;;8.05;4.50;;;;;;;0.63;73.93;99409.69;4925711;29;20048;-79
2022/12/28 00:10:38;;;;;;;5.82;3.80;;;;;;;0.65;72.66;99424.28;4925491;29;20067;-79
2022/12/28 00:13:04;;;;;;;7.82;3.80;;;;;;;0.59;73.77;99426.69;4908535;29;20120;-80
2022/12/28 00:15:31;;;;;;;7.38;4.22;;;;;;;0.12;72.94;99352.94;4927910;29;20514;-81
2022/12/28 00:17:57;;;;;;;7.28;4.18;;;;;;;0.41;73.36;99412.59;4892183;29;20060;-81
2022/12/28 00:20:25;;;;;;;7.53;4.35;;;;;;;0.54;73.62;99418.88;4924629;29;20036;-81
2022/12/28 00:22:53;;;;;;;6.63;4.05;;;;;;;0.36;73.56;99392.78;4909148;29;20047;-81
2022/12/28 00:25:19;;;;;;;7.85;4.25;;;;;;;0.41;72.70;99404.91;4925167;29;20123;-80
2022/12/28 00:27:45;;;;;;;8.93;4.20;;;;;;;0.22;73.52;99370.28;4906214;29;20490;-82
2022/12/28 00:30:12;;;;;;;6.93;4.05;;;;;;;0.17;73.14;99351.34;4921056;29;20066;-82
2022/12/28 00:33:00;;;;;;;;;;;;;;;;;;;;;
2022/12/28 00:35:31;;;;;;;8.77;3.60;;;;;;;0.53;72.86;99393.22;4900392;29;20517;-81
2022/12/28 00:37:59;;;;;;;5.45;3.55;;;;;;;0.41;72.81;99386.97;4902859;29;20094;-79
2022/12/28 00:40:25;;;;;;;7.15;3.90;;;;;;;0.51;73.38;99390.63;4902286;29;20477;-81
2022/12/28 00:42:51;;;;;;;6.93;4.18;;;;;;;0.40;73.53;99363.88;4906761;29;20076;-81
2022/12/28 00:45:17;;;;;;;7.60;3.90;;;;;;;0.65;73.30;99380.75;4914007;29;20044;-82
2022/12/28 00:47:43;;;;;;;7.15;3.60;;;;;;;0.39;73.34;99346.78;4909733;29;20040;-78
2022/12/28 00:50:11;;;;;;;5.97;3.75;;;;;;;0.24;73.33;99330.22;4923253;29;20172;-81
2022/12/28 00:52:37;;;;;;;8.10;3.85;;;;;;;0.53;73.86;99380.41;4904252;29;20123;-82
2022/12/28 00:55:03;;;;;;;6.32;3.95;;;;;;;0.66;73.58;99371.34;4904988;29;20044;-78
2022/12/28 00:57:30;;;;;;;7.88;3.85;;;;;;;0.60;72.77;99372.91;4910400;29;20118;-79
2022/12/28 00:59:56;;;;;;;8.38;4.05;;;;;;;0.52;72.85;99361.66;4889864;29;20078;-80
2022/12/28 01:02:22;;;;;;;8.63;4.85;;;;;;;0.45;72.99;99346.94;4920750;29;20095;-81
2022/12/28 01:04:48;;;;;;;10.60;4.88;;;;;;;0.13;72.66;99293.25;4910138;29;20130;-80
2022/12/28 01:07:14;;;;;;;10.38;5.60;;;;;;;0.65;73.81;99355.13;4913788;29;20079;-77
2022/12/28 01:09:40;;;;;;;12.45;7.10;;;;;;;0.52;73.18;99338.59;4903877;29;20058;-79
2022/12/28 01:12:06;;;;;;;14.13;7.22;;;;;;;0.57;73.04;99352.34;4911272;29;20051;-79
2022/12/28 01:14:33;;;;;;;12.70;6.40;;;;;;;0.53;73.20;99349.69;4924367;29;20047;-79
2022/12/28 01:17:00;;;;;;;15.52;6.90;;;;;;;0.37;72.06;99351.00;4897212;29;20043;-79
2022/12/28 01:19:26;;;;;;;14.45;6.72;;;;;;;0.33;72.45;99351.78;4913925;29;20059;-79
2022/12/28 01:21:52;;;;;;;14.23;7.05;;;;;;;0.32;72.31;99357.72;4913526;29;20051;-80
2022/12/28 01:24:18;;;;;;;14.27;6.63;;;;;;;-0.07;73.15;99301.28;4913314;29;20039;-79
2022/12/28 01:26:44;;;;;;;13.77;6.53;;;;;;;0.17;73.02;99341.13;4921478;29;20046;-79
2022/12/28 01:29:10;;;;;;;13.52;6.72;;;;;;;0.23;73.86;99360.88;4925887;29;20099;-79
2022/12/28 01:31:36;;;;;;;15.20;7.35;;;;;;;0.05;73.18;99328.03;4926246;29;20139;-79
2022/12/28 01:34:02;;;;;;;12.80;6.28;;;;;;;0.19;73.85;99338.63;4926338;29;20049;-79
2022/12/28 01:36:30;;;;;;;12.65;6.57;;;;;;;0.25;73.98;99334.53;4923352;28;20078;-78
2022/12/28 01:38:59;;;;;;;11.80;6.30;;;;;;;0.17;73.23;99338.56;4904732;29;20494;-79
2022/12/28 01:41:27;;;;;;;12.57;6.25;;;;;;;-0.03;73.40;99307.38;4902806;29;20051;-79
2022/12/28 01:43:54;;;;;;;13.98;7.15;;;;;;;0.24;73.58;99337.03;4919433;29;20403;-81
2022/12/28 01:46:29;;;;;;;12.55;6.32;;;;;;;0.21;73.50;99342.09;4902816;29;20051;-81
2022/12/28 01:49:12;;;;;;;15.55;6.72;;;;;;;0.37;74.01;99335.63;4903703;29;20044;-79
2022/12/28 01:51:59;;;;;;;14.80;6.30;;;;;;;0.39;72.79;99326.31;4887588;29;20056;-81
2022/12/28 01:54:29;;;;;;;13.63;6.30;;;;;;;0.46;73.40;99328.19;4903616;29;20116;-80
2022/12/28 01:56:55;;;;;;;12.32;6.60;;;;;;;0.53;74.03;99318.97;4889168;29;20126;-82
2022/12/28 01:59:27;;;;;;;11.73;6.32;;;;;;;0.41;73.21;99310.19;4888877;29;20078;-81
2022/12/28 02:01:53;;;;;;;13.48;6.82;;;;;;;-0.06;73.12;99267.19;4885260;29;20040;-82
2022/12/28 02:04:21;;;;;;;13.07;5.65;;;;;;;0.21;73.26;99311.38;4900760;29;20059;-80
2022/12/28 02:06:47;;;;;;;12.13;6.43;;;;;;;0.17;73.03;99314.69;4900653;29;20036;-79
2022/12/28 02:09:23;;;;;;;15.60;7.07;;;;;;;0.10;72.45;99316.22;4900161;29;20063;-79
2022/12/28 02:11:50;;;;;;;13.15;6.97;;;;;;;-0.17;72.83;99279.72;4900742;29;20123;-79
2022/12/28 02:14:18;;;;;;;12.45;6.53;;;;;;;-0.14;72.85;99285.75;4900475;29;20091;-81
2022/12/28 02:16:44;;;;;;;15.40;6.13;;;;;;;-0.03;72.99;99323.56;4918017;29;20093;-79
2022/12/28 02:19:16;;;;;;;10.40;6.15;;;;;;;-0.08;72.73;99320.00;4886636;29;20544;-80
2022/12/28 02:22:26;;;;;;;11.90;6.72;;;;;;;0.13;74.09;99311.16;4911116;29;20028;-80
2022/12/28 02:25:01;;;;;;;13.65;6.97;;;;;;;0.13;73.57;99304.38;4861330;29;20048;-80
2022/12/28 02:28:04;;;;;;;13.35;6.57;;;;;;;0.17;73.53;99310.41;4843519;29;20104;-81
2022/12/28 02:30:38;;;;;;;13.77;6.65;;;;;;;0.13;74.03;99308.59;4853680;29;20060;-80
2022/12/28 02:33:16;;;;;;;12.18;5.88;;;;;;;0.05;73.27;99310.13;4926669;29;20050;-81
2022/12/28 02:35:53;;;;;;;14.45;6.70;;;;;;;0.11;72.98;99317.97;4903769;29;20044;-79
2022/12/28 02:38:42;;;;;;;13.80;6.80;;;;;;;0.03;73.38;99297.25;4900527;29;20044;-81
2022/12/28 02:41:13;;;;;;;14.70;7.10;;;;;;;0.14;73.78;99315.44;4917251;29;20394;-80
2022/12/28 02:43:39;;;;;;;14.40;6.80;;;;;;;0.36;73.79;99310.88;4899694;29;20135;-80
2022/12/28 02:52:21;;;;;;;15.45;7.18;;;;;;;0.25;73.46;99303.81;4901186;29;20593;-80
2022/12/28 02:58:34;;;;;;;16.83;8.45;;;;;;;0.63;74.19;99314.94;4904244;29;20090;-80
2022/12/28 03:01:39;;;;;;;16.50;8.13;;;;;;;0.62;73.30;99292.72;4884057;29;20087;-82
2022/12/28 03:04:30;;;;;;;13.90;7.55;;;;;;;0.38;72.75;99293.84;4899380;29;20047;-80
2022/12/28 03:10:10;;;;;;;15.82;7.93;;;;;;;0.31;73.26;99317.59;4884017;29;20413;-80
2022/12/28 03:12:56;;;;;;;15.65;7.63;;;;;;;0.07;72.24;99298.22;4899001;29;20071;-80
2022/12/28 03:15:31;;;;;;;13.60;7.13;;;;;;;0.13;72.84;99311.16;4883445;29;20142;-79
2022/12/28 03:32:00;;;;;;;15.98;7.97;;;;;;;0.43;73.62;99302.53;4890948;29;20040;-80
2022/12/28 03:34:26;;;;;;;16.95;8.32;;;;;;;0.41;73.29;99304.16;4894704;29;20048;-78
2022/12/28 03:37:08;;;;;;;16.65;8.48;;;;;;;0.22;72.53;99284.97;4919795;29;20063;-78
2022/12/28 03:39:34;;;;;;;14.55;7.53;;;;;;;0.24;72.96;99302.06;4900452;29;20050;-80
2022/12/28 03:45:26;;;;;;;16.43;7.90;;;;;;;0.30;72.80;99301.34;4899033;29;20580;-80
2022/12/28 03:47:53;;;;;;;16.27;8.43;;;;;;;0.19;72.79;99295.97;4899385;29;20126;-80
2022/12/28 03:50:20;;;;;;;16.77;6.90;;;;;;;0.17;72.93;99294.22;4915002;29;20147;-80
2022/12/28 03:52:47;;;;;;;16.08;7.55;;;;;;;0.08;72.65;99290.59;4903802;29;20517;-78
2022/12/28 03:55:14;;;;;;;13.32;7.13;;;;;;;0.06;73.91;99269.19;4902843;29;20047;-80
2022/12/28 03:57:41;;;;;;;11.50;6.43;;;;;;;-0.23;73.27;99227.53;4903768;29;20044;-81
2022/12/28 04:00:14;;;;;;;12.88;7.30;;;;;;;-0.11;73.74;99244.91;4889429;29;20642;-82
2022/12/28 04:02:42;;;;;;;14.27;7.03;;;;;;;0.01;73.19;99247.75;4916614;29;20044;-80
2022/12/28 04:05:09;;;;;;;14.20;6.50;;;;;;;0.20;73.40;99290.03;4883450;29;20573;-82
2022/12/28 04:07:38;;;;;;;14.45;6.75;;;;;;;0.14;73.26;99270.28;4898535;29;20055;-81
2022/12/28 04:10:04;;;;;;;12.93;6.90;;;;;;;0.32;72.81;99283.50;4883371;29;20036;-82
2022/12/28 04:12:32;;;;;;;13.80;6.63;;;;;;;0.10;72.31;99267.59;4898836;29;20075;-81
2022/12/28 04:15:16;;;;;;;12.02;6.25;;;;;;;0.04;72.66;99283.66;4898070;29;20032;-80
2022/12/28 04:17:42;;;;;;;12.57;7.03;;;;;;;0.19;73.72;99288.28;4914869;29;20048;-82
2022/12/28 04:20:08;;;;;;;15.00;7.07;;;;;;;0.18;72.70;99273.75;4898893;29;20569;-82
2022/12/28 04:22:35;;;;;;;14.88;7.30;;;;;;;-0.07;73.11;99257.78;4884192;29;20043;-80
2022/12/28 04:25:01;;;;;;;12.13;6.32;;;;;;;0.21;73.30;99266.16;4914417;29;20422;-81
2022/12/28 04:27:27;;;;;;;11.23;6.28;;;;;;;0.07;72.07;99242.78;4883788;29;20055;-81
2022/12/28 04:29:58;;;;;;;16.27;7.60;;;;;;;0.15;72.14;99278.78;4914623;29;20036;-83
2022/12/28 04:32:24;;;;;;;15.52;7.90;;;;;;;-0.24;72.17;99218.13;4914788;29;20048;-81
2022/12/28 04:34:50;;;;;;;15.18;8.02;;;;;;;0.09;73.00;99271.84;4883286;29;20051;-80
2022/12/28 04:37:18;;;;;;;16.88;8.48;;;;;;;0.22;72.87;99273.00;4884007;29;20506;-82
2022/12/28 04:39:44;;;;;;;17.20;8.00;;;;;;;0.38;73.50;99258.91;4883435;29;20146;-81
2022/12/28 04:42:10;;;;;;;17.02;8.77;;;;;;;0.14;72.28;99239.56;4915028;29;20475;-82
2022/12/28 04:44:36;;;;;;;18.65;8.93;;;;;;;-0.04;72.77;99195.63;4916853;29;20060;-82
2022/12/28 04:47:02;;;;;;;16.08;8.55;;;;;;;0.08;73.33;99202.72;4914741;29;20052;-82
2022/12/28 04:49:28;;;;;;;19.02;10.45;;;;;;;0.44;72.74;99250.50;4919404;29;20040;-80
2022/12/28 04:51:54;;;;;;;19.23;10.25;;;;;;;0.17;72.20;99227.66;4933311;29;20552;-83
2022/12/28 04:54:20;;;;;;;17.17;9.15;;;;;;;0.45;73.12;99249.66;4921639;29;20067;-81
2022/12/28 04:56:46;;;;;;;18.73;9.77;;;;;;;0.52;73.39;99220.81;4886794;29;20081;-82
2022/12/28 04:59:12;;;;;;;16.15;8.50;;;;;;;0.47;71.38;99242.00;4886665;29;20044;-80
2022/12/28 05:01:38;;;;;;;20.08;9.25;;;;;;;0.62;72.97;99262.84;4917378;29;20043;-82
2022/12/28 05:04:04;;;;;;;18.00;8.93;;;;;;;0.58;71.83;99227.75;4886719;29;20043;-81
2022/12/28 05:06:30;;;;;;;15.27;8.20;;;;;;;0.52;71.01;99243.84;4903315;29;20044;-81
2022/12/28 05:08:56;;;;;;;16.73;8.75;;;;;;;0.55;71.62;99261.81;4902147;29;20450;-82
2022/12/28 05:11:26;;;;;;;15.93;8.57;;;;;;;0.49;71.63;99258.25;4902733;29;20103;-82
2022/12/28 05:13:52;;;;;;;21.13;9.18;;;;;;;0.27;72.20;99235.59;4902645;29;20048;-83
2022/12/28 05:16:21;;;;;;;19.20;10.15;;;;;;;0.35;72.50;99222.09;4902719;29;20048;-84
2022/12/28 05:18:47;;;;;;;25.45;11.65;;;;;;;0.45;71.71;99262.47;4901517;29;20088;-82
2022/12/28 05:21:16;;;;;;;24.17;12.30;;;;;;;0.17;72.30;99205.50;4902213;29;20051;-83
2022/12/28 05:23:43;;;;;;;25.88;12.40;;;;;;;0.23;72.13;99218.44;4886709;29;20043;-82
2022/12/28 05:26:14;;;;;;;22.75;11.77;;;;;;;0.26;71.59;99225.31;4917713;29;20036;-82
2022/12/28 05:28:41;;;;;;;19.38;10.18;;;;;;;-0.04;71.87;99203.31;4919575;29;20058;-82
2022/12/28 05:31:12;;;;;;;20.63;10.07;;;;;;;0.18;71.58;99232.81;4918428;29;20040;-82
2022/12/28 05:33:39;;;;;;;18.33;10.10;;;;;;;0.16;71.99;99237.03;4919041;29;20056;-82
2022/12/28 05:36:07;;;;;;;17.08;9.20;;;;;;;-0.48;71.94;99152.78;4888032;29;20062;-82
2022/12/28 05:38:34;;;;;;;15.38;8.18;;;;;;;-0.18;70.66;99203.81;4927119;29;20067;-83
2022/12/28 05:41:20;;;;;;;12.52;7.57;;;;;;;0.35;71.54;99276.75;4901100;29;20467;-81
2022/12/28 05:43:47;;;;;;;13.38;6.78;;;;;;;0.13;71.99;99239.50;4901626;29;20080;-82
2022/12/28 05:46:15;;;;;;;14.93;8.15;;;;;;;0.22;71.45;99242.31;4885980;29;20112;-82
2022/12/28 05:48:42;;;;;;;15.88;8.15;;;;;;;0.15;71.58;99235.28;4908108;29;20048;-83
2022/12/28 05:51:14;;;;;;;14.35;7.65;;;;;;;0.36;71.97;99272.47;4912022;29;20139;-83
2022/12/28 05:53:41;;;;;;;17.70;7.85;;;;;;;0.28;72.11;99277.41;4902127;29;20081;-82
2022/12/28 05:56:13;;;;;;;14.02;8.82;;;;;;;0.17;72.02;99232.78;4901291;29;20573;-82
2022/12/28 05:58:39;;;;;;;16.67;8.07;;;;;;;0.25;72.32;99223.59;4917162;29;20126;-83
2022/12/28 06:01:20;;;;;;;16.35;8.00;;;;;;;0.52;71.75;99269.47;4901430;29;20043;-80
2022/12/28 06:03:51;;;;;;;15.82;7.45;;;;;;;0.50;70.92;99280.47;4905399;29;20044;-83
2022/12/28 06:06:28;;;;;;;14.63;7.97;;;;;;;0.56;71.29;99283.19;4914540;29;20459;-82
2022/12/28 06:08:55;;;;;;;15.48;7.72;;;;;;;-0.26;71.10;99155.84;4922990;29;20044;-82
2022/12/28 06:11:29;;;;;;;13.45;7.25;;;;;;;-0.25;70.68;99173.81;4921190;29;20127;-83
2022/12/28 06:13:56;;;;;;;12.93;7.05;;;;;;;-0.23;70.56;99189.19;4886314;29;20044;-82
2022/12/28 06:16:26;;;;;;;12.38;7.18;;;;;;;0.11;70.77;99262.50;4919054;29;20044;-80
2022/12/28 06:18:53;;;;;;;15.48;8.13;;;;;;;-0.04;71.55;99227.19;4918913;29;20060;-81
2022/12/28 06:21:29;;;;;;;14.90;8.03;;;;;;;0.08;70.76;99275.22;4890082;29;20047;-81
2022/12/28 06:24:00;;;;;;;15.65;8.32;;;;;;;0.30;72.01;99291.13;4918769;29;20046;-85
2022/12/28 06:26:31;;;;;;;13.48;7.75;;;;;;;0.33;71.75;99295.47;4918848;29;20471;-82
2022/12/28 06:28:58;;;;;;;18.02;9.02;;;;;;;-0.75;70.88;99135.91;4902633;29;20051;-84
2022/12/28 06:31:33;;;;;;;17.35;8.90;;;;;;;-0.54;71.69;99134.72;4900875;29;20047;-85
2022/12/28 06:34:01;;;;;;;16.25;8.93;;;;;;;0.13;71.51;99212.25;4885261;29;20032;-83
2022/12/28 06:36:30;;;;;;;15.95;9.13;;;;;;;0.10;70.73;99211.31;4886785;29;20047;-83
2022/12/28 06:39:07;;;;;;;14.98;9.02;;;;;;;0.02;70.76;99210.25;4921482;29;20036;-84
2022/12/28 06:42:07;;;;;;;17.05;9.52;;;;;;;0.38;71.55;99230.75;4876546;29;20051;-82
2022/12/28 06:44:43;;;;;;;21.85;9.27;;;;;;;0.75;71.22;99284.50;4921623;29;20062;-82
2022/12/28 06:47:44;;;;;;;19.08;10.10;;;;;;;0.65;71.28;99303.03;4905025;29;20112;-83
2022/12/28 06:50:10;;;;;;;19.33;9.75;;;;;;;0.85;71.51;99278.72;4947557;23;20064;-81
2022/12/28 06:52:42;;;;;;;22.55;11.32;;;;;;;0.67;71.31;99219.41;4939719;29;20106;-81
2022/12/28 06:58:45;;;;;;;29.85;15.10;;;;;;;0.99;70.11;99301.25;4878545;29;20049;-81
2022/12/28 07:01:19;;;;;;;28.75;14.82;;;;;;;-0.31;70.50;99048.34;4879459;29;20041;-82
2022/12/28 07:03:49;;;;;;;30.20;15.65;;;;;;;0.82;71.20;99214.59;4868471;29;20052;-81
2022/12/28 07:06:21;;;;;;;26.10;13.45;;;;;;;0.74;70.23;99182.88;4887785;29;20083;-81
2022/12/28 07:09:32;;;;;;;30.08;14.30;;;;;;;1.43;70.67;99290.16;4852545;29;20490;-81
2022/12/28 07:12:44;;;;;;;32.20;13.40;;;;;;;-0.19;69.72;99073.34;4883980;29;20100;-83
2022/12/28 07:15:10;;;;;;;25.38;11.60;;;;;;;0.33;68.97;99182.84;4881638;29;20100;-78
2022/12/28 07:18:33;;;;;;;;;;;;;;;;;;;;;
2022/12/28 07:33:11;;;;;;;20.30;11.20;;;;;;;-0.08;70.88;99084.66;4921966;29;20059;-81
2022/12/28 07:36:03;;;;;;;24.13;12.38;;;;;;;0.39;70.77;99126.63;4900482;29;20087;-81
2022/12/28 07:38:29;;;;;;;29.27;14.00;;;;;;;0.73;70.84;99178.56;4903291;29;20101;-80
2022/12/28 07:41:08;;;;;;;26.52;13.80;;;;;;;1.49;70.17;99282.59;4942043;29;20051;-82
2022/12/28 07:43:35;;;;;;;32.80;15.95;;;;;;;1.04;70.09;99198.00;4920480;29;20347;-80
2022/12/28 07:46:07;;;;;;;29.08;13.88;;;;;;;1.04;69.27;99223.63;4917192;29;20080;-82
2022/12/28 07:48:43;;;;;;;29.48;13.38;;;;;;;1.36;69.74;99289.19;4931151;29;20052;-83
2022/12/28 07:51:30;;;;;;;27.05;13.65;;;;;;;1.39;69.73;99304.63;5096278;23;20062;-80
2022/12/28 07:53:59;;;;;;;27.33;13.50;;;;;;;1.53;70.34;99312.63;4975174;28;20527;-82
2022/12/28 07:56:30;;;;;;;26.95;13.73;;;;;;;1.32;69.97;99254.06;4956769;28;20105;-81
2022/12/28 07:59:06;;;;;;;26.17;13.20;;;;;;;1.64;70.26;99293.16;4941068;28;20042;-82
2022/12/28 08:01:35;;;;;;;25.75;13.45;;;;;;;0.36;69.86;99066.00;4973481;28;20133;-81
2022/12/28 08:04:49;;;;;;;27.75;13.15;;;;;;;0.52;69.97;99051.81;4942177;28;20047;-84
2022/12/28 08:07:15;;;;;;;33.45;13.63;;;;;;;2.02;70.04;99286.13;4955587;28;20066;-82
2022/12/28 08:13:48;;;;;;;20.48;11.15;;;;;;;0.73;69.46;99055.63;4855908;29;20161;-85
2022/12/28 08:16:39;;;;;;;21.08;11.02;;;;;;;0.85;69.79;99044.75;4858292;29;20053;-80
2022/12/28 08:19:08;;;;;;;18.10;10.52;;;;;;;1.70;69.26;99196.63;4873432;29;20550;-81
2022/12/28 08:21:39;;;;;;;20.90;10.73;;;;;;;1.87;69.13;99263.63;4928794;28;20098;-81
2022/12/28 08:24:07;;;;;;;19.73;10.43;;;;;;;2.03;69.16;99283.59;4921935;29;20055;-82
2022/12/28 08:26:43;;;;;;;18.10;9.57;;;;;;;1.96;68.77;99281.75;4957280;28;20035;-82
2022/12/28 08:29:14;;;;;;;16.30;8.77;;;;;;;2.06;69.21;99286.22;4959718;28;20122;-84
2022/12/28 08:31:44;;;;;;;18.50;9.45;;;;;;;2.15;69.64;99287.19;4961318;28;20039;-82
2022/12/28 08:34:13;;;;;;;15.30;8.85;;;;;;;1.91;68.97;99226.91;4932588;28;20039;-82
2022/12/28 08:36:39;;;;;;;44.45;18.50;;;;;;;1.83;69.42;99184.88;4958475;28;20131;-80
2022/12/28 08:39:09;;;;;;;24.67;12.48;;;;;;;2.43;68.85;99298.78;4926014;28;20071;-83
2022/12/28 08:41:38;;;;;;;17.58;9.90;;;;;;;2.35;68.86;99284.97;4958800;28;20519;-84
2022/12/28 08:44:13;;;;;;;17.00;9.23;;;;;;;1.79;66.97;99248.97;4926449;29;20050;-82
2022/12/28 08:46:40;;;;;;;16.92;8.63;;;;;;;1.40;67.59;99247.41;4942358;29;20035;-80
2022/12/28 08:49:05;;;;;;;15.25;8.95;;;;;;;1.53;67.85;99288.66;4909800;29;20047;-81
2022/12/28 08:52:01;;;;;;;21.00;10.85;;;;;;;1.04;68.59;99190.31;4957930;28;20065;-84
2022/12/28 08:54:33;;;;;;;20.25;10.25;;;;;;;1.64;68.32;99261.53;4945906;28;20038;-80
2022/12/28 08:56:59;;;;;;;23.55;11.13;;;;;;;1.84;68.72;99291.81;4943799;28;20031;-80
2022/12/28 08:59:25;;;;;;;20.92;11.68;;;;;;;1.75;68.75;99283.09;4943571;28;20078;-79
2022/12/28 09:01:52;;;;;;;18.70;10.05;;;;;;;1.57;67.48;99280.19;4945364;28;20035;-81
2022/12/28 09:04:21;;;;;;;23.85;10.85;;;;;;;1.42;67.66;99299.56;4963906;28;20062;-80
2022/12/28 09:06:47;;;;;;;22.42;12.15;;;;;;;1.02;68.02;99256.03;4960725;28;20050;-81
2022/12/28 09:09:16;;;;;;;21.08;11.25;;;;;;;1.46;68.56;99277.41;4943803;28;20431;-80
2022/12/28 09:11:42;;;;;;;28.58;13.25;;;;;;;1.46;67.50;99292.78;4957994;28;20047;-80
2022/12/28 09:14:10;;;;;;;21.67;11.85;;;;;;;1.61;68.73;99285.41;4939753;29;20126;-81
2022/12/28 09:16:38;;;;;;;30.00;15.60;;;;;;;1.75;68.59;99290.78;4941040;29;20059;-84
2022/12/28 09:19:07;;;;;;;29.30;14.80;;;;;;;1.86;68.58;99283.28;4940426;29;20047;-80
2022/12/28 09:21:36;;;;;;;25.88;13.68;;;;;;;2.11;68.57;99297.41;4925437;29;20504;-83
2022/12/28 09:24:04;;;;;;;25.73;13.70;;;;;;;1.97;68.31;99247.56;4923998;28;20118;-81
2022/12/28 09:26:36;;;;;;;26.00;12.30;;;;;;;1.49;68.47;99152.66;4940637;29;20065;-81
2022/12/28 09:29:09;;;;;;;26.95;13.90;;;;;;;2.18;67.89;99251.31;4924527;28;20069;-81
2022/12/28 09:31:36;;;;;;;25.02;12.88;;;;;;;2.41;67.73;99288.50;4924505;29;20039;-80
2022/12/28 09:34:07;;;;;;;23.02;12.43;;;;;;;2.38;67.19;99296.16;4957642;28;20059;-82
2022/12/28 09:36:41;;;;;;;21.43;11.63;;;;;;;2.34;67.60;99286.66;4939577;29;20524;-80
2022/12/28 09:39:17;;;;;;;21.52;11.77;;;;;;;2.41;67.72;99291.06;4923224;29;20300;-81
2022/12/28 09:41:48;;;;;;;23.45;12.18;;;;;;;2.50;67.14;99286.94;4923790;28;20453;-82
2022/12/28 09:44:14;;;;;;;24.95;13.00;;;;;;;2.59;67.09;99297.31;4940048;29;20166;-81
2022/12/28 09:46:47;;;;;;;24.02;12.18;;;;;;;2.36;67.29;99256.72;4945345;29;20043;-80
2022/12/28 09:49:18;;;;;;;31.55;15.90;;;;;;;2.59;67.13;99299.91;4948112;28;20054;-85
2022/12/28 09:52:00;;;;;;;28.50;14.50;;;;;;;2.31;67.16;99271.22;4957055;28;20466;-82
2022/12/28 09:54:26;;;;;;;27.42;13.80;;;;;;;2.20;67.54;99242.81;4939102;29;20097;-81
2022/12/28 09:56:53;;;;;;;26.17;13.60;;;;;;;2.21;66.41;99262.47;4938737;29;20149;-81
2022/12/28 09:59:24;;;;;;;25.63;13.82;;;;;;;2.39;67.31;99297.88;4907474;28;20035;-83
2022/12/28 10:01:59;;;;;;;21.17;12.13;;;;;;;1.93;65.57;99289.38;4908429;28;20047;-80
2022/12/28 10:04:26;;;;;;;23.13;11.38;;;;;;;2.04;66.99;99298.16;4938249;29;20295;-80
2022/12/28 10:06:52;;;;;;;18.70;11.25;;;;;;;2.21;67.10;99313.84;4949877;28;20071;-80
2022/12/28 10:09:32;;;;;;;13.40;8.30;;;;;;;2.10;66.31;99313.66;4958568;28;20070;-80
2022/12/28 10:12:00;;;;;;;18.52;9.88;;;;;;;2.05;66.91;99304.16;4960562;28;20034;-81
2022/12/28 10:14:39;;;;;;;17.08;10.32;;;;;;;1.95;66.76;99283.47;4976229;28;20535;-81
2022/12/28 10:20:47;;;;;;;20.88;11.73;;;;;;;1.54;67.31;99174.97;4864100;29;20107;-80
2022/12/28 10:23:18;;;;;;;19.70;11.52;;;;;;;2.39;66.67;99313.28;4877633;28;20548;-80
2022/12/28 10:25:48;;;;;;;20.95;12.05;;;;;;;2.38;66.88;99293.59;4960539;28;20043;-80
2022/12/28 10:28:25;;;;;;;18.95;11.40;;;;;;;2.53;67.02;99295.53;4960852;28;20051;-79
2022/12/28 10:31:09;;;;;;;20.60;11.70;;;;;;;2.36;67.07;99255.88;4950014;28;20094;-81
2022/12/28 10:38:23;;;;;;;20.02;10.65;;;;;;;2.83;66.70;99308.81;4914275;29;20051;-82
2022/12/28 10:41:11;;;;;;;18.52;11.38;;;;;;;2.80;66.47;99306.19;4921286;28;20112;-82
2022/12/28 10:43:41;;;;;;;18.70;10.90;;;;;;;2.61;66.37;99271.69;4940636;28;20047;-78
2022/12/28 10:46:22;;;;;;;19.52;10.50;;;;;;;2.72;66.07;99285.53;4943748;28;20051;-78
2022/12/28 10:49:13;;;;;;;19.27;10.50;;;;;;;1.85;66.77;99140.44;4924351;28;20141;-78
2022/12/28 10:52:27;;;;;;;21.52;11.82;;;;;;;2.84;65.67;99329.41;4898112;29;20058;-80
2022/12/28 10:54:57;;;;;;;21.45;11.80;;;;;;;2.80;66.65;99308.75;4921807;29;20051;-79
2022/12/28 10:57:31;;;;;;;;;;;;;;;2.76;66.39;99309.59;4939177;29;20078;-80
2022/12/28 11:00:21;;;;;;;24.27;12.23;;;;;;;2.77;66.37;99317.31;4954348;29;19919;-80
2022/12/28 11:02:50;;;;;;;27.10;13.82;;;;;;;1.76;66.08;99146.28;4948742;29;20051;-78
2022/12/28 11:05:21;;;;;;;23.42;12.38;;;;;;;2.15;66.32;99215.31;4922059;29;20036;-80
2022/12/28 11:07:48;;;;;;;24.00;13.18;;;;;;;2.61;66.17;99293.06;4925274;29;20043;-81
2022/12/28 11:18:43;;;;;;;26.63;12.68;;;;;;;1.65;66.27;99111.91;4914888;29;20058;-80
2022/12/28 11:21:13;;;;;;;22.65;11.45;;;;;;;2.76;65.36;99313.00;4860757;29;20057;-79
2022/12/28 11:28:34;;;;;;;20.77;10.70;;;;;;;2.84;66.12;99311.44;4769099;29;20102;-78
2022/12/28 11:36:08;;;;;;;19.20;10.68;;;;;;;2.79;66.29;99305.34;4771283;30;20117;-78
2022/12/28 11:47:44;;;;;;;;;;;;;;;;;;;;;
2022/12/28 11:51:38;;;;;;;20.58;10.43;;;;;;;2.69;65.98;99313.75;4986632;23;20074;-75
2022/12/28 11:54:55;;;;;;;21.85;10.45;;;;;;;2.67;65.98;99310.28;4913387;29;20028;-76
2022/12/28 12:02:27;;;;;;;19.45;10.48;;;;;;;2.64;65.73;99318.81;4867913;29;20092;-82
2022/12/28 12:05:40;;;;;;;23.73;10.40;;;;;;;1.44;66.12;99123.50;4838846;29;20053;-81
2022/12/28 12:08:51;;;;;;;24.55;12.55;;;;;;;2.66;65.73;99323.97;4878405;29;20044;-79
2022/12/28 12:11:28;;;;;;;20.83;10.77;;;;;;;2.66;65.86;99326.53;4881924;29;20048;-78
2022/12/28 12:14:16;;;;;;;19.38;10.07;;;;;;;1.83;65.78;99198.56;4866912;29;20044;-80
2022/12/28 12:17:37;;;;;;;;;;;;;;;;;;;;;
2022/12/28 12:20:19;;;;;;;20.48;10.32;;;;;;;1.32;65.86;99126.75;4884361;29;20036;-79
2022/12/28 12:23:40;;;;;;;20.58;10.55;;;;;;;1.91;65.98;99206.38;4946158;28;20423;-82
2022/12/28 12:26:47;;;;;;;21.63;10.65;;;;;;;2.74;66.23;99345.53;4940183;29;20543;-80
2022/12/28 12:29:42;;;;;;;20.65;11.70;;;;;;;2.49;66.07;99316.88;4955705;29;20700;-81
2022/12/28 12:33:03;;;;;;;23.88;11.73;;;;;;;2.75;65.55;99347.25;4902724;29;20056;-77
2022/12/28 12:36:18;;;;;;;20.65;10.35;;;;;;;2.70;65.98;99354.00;4919166;29;20120;-78
2022/12/28 12:38:57;;;;;;;23.52;11.13;;;;;;;2.71;65.74;99348.91;4899634;29;20044;-81
2022/12/28 12:42:07;;;;;;;21.08;11.30;;;;;;;2.67;65.98;99349.69;4876007;29;20056;-80
2022/12/28 12:44:56;;;;;;;20.77;11.25;;;;;;;1.32;66.06;99144.69;4915325;29;20078;-82
2022/12/28 12:48:21;;;;;;;20.63;11.00;;;;;;;2.59;66.14;99368.41;4900386;29;20044;-80
2022/12/28 12:52:23;;;;;;;22.95;11.65;;;;;;;2.48;66.22;99375.94;5358442;23;20061;-82
2022/12/28 12:55:25;;;;;;;23.90;12.18;;;;;;;2.42;65.36;99374.13;4907193;29;20478;-82
2022/12/28 13:05:54;;;;;;;28.23;14.02;;;;;;;1.83;66.37;99308.03;4902602;28;20055;-80
2022/12/28 13:08:32;;;;;;;28.95;14.27;;;;;;;1.63;66.64;99277.75;4938990;28;20524;-81
2022/12/28 13:19:29;;;;;;;27.13;13.20;;;;;;;2.30;66.94;99379.03;4835494;29;20064;-78
2022/12/28 13:21:57;;;;;;;28.08;14.15;;;;;;;1.82;66.38;99314.84;4943863;29;20039;-82
2022/12/28 13:24:38;;;;;;;33.70;15.70;;;;;;;2.20;66.58;99370.31;4942850;29;20512;-81
2022/12/28 13:27:17;;;;;;;26.40;14.18;;;;;;;1.77;66.66;99311.31;4941131;28;20130;-81
2022/12/28 13:29:53;;;;;;;24.05;12.82;;;;;;;2.20;66.86;99398.53;4909566;28;20059;-82
2022/12/28 13:32:27;;;;;;;22.15;11.95;;;;;;;0.88;66.84;99184.00;4910008;28;20050;-82
2022/12/28 13:34:53;;;;;;;16.35;8.75;;;;;;;2.08;66.42;99405.19;4942927;28;20063;-83
2022/12/28 13:37:24;;;;;;;16.13;9.07;;;;;;;0.92;66.39;99246.41;4925522;28;20122;-82
2022/12/28 13:40:37;;;;;;;17.45;8.93;;;;;;;2.03;66.92;99406.81;4940682;29;20110;-80
2022/12/28 13:43:59;;;;;;;15.73;8.18;;;;;;;2.10;66.67;99407.78;4918572;28;20055;-81
2022/12/28 13:46:27;;;;;;;14.68;8.32;;;;;;;1.11;66.13;99281.00;4957451;28;20047;-81
2022/12/28 13:48:56;;;;;;;14.23;7.47;;;;;;;1.47;66.97;99336.41;4947324;29;20037;-83
2022/12/28 13:51:24;;;;;;;13.82;7.78;;;;;;;1.78;67.45;99395.16;4965597;28;20043;-79
2022/12/28 13:53:56;;;;;;;16.00;7.90;;;;;;;1.70;66.74;99387.31;4947800;28;20045;-79
2022/12/28 14:00:44;;;;;;;12.07;7.00;;;;;;;1.17;66.62;99329.81;4966785;28;20488;-81